Latest Coastal Weather Observations for Hillarys Point Boat Harbour

IDW60701

Issued at 12:53 pm WST Tuesday 17 January 2017 (issued every 10 minutes, with the page automatically refreshed every 10 minutes)

About coastal observations | Map of coastal stations | Coastal observations for WA | Marine services | Other Formats
Station Details ID: 009265 Name: HILLARYS BOAT HARBOUR NTC AWS Lat: -31.83 Lon: 115.74 Height: 0.0 m
Data from the previous 72 hours. | See also: Recent months for locations in Western Australia
Date/Time
WST
Temp
°C
Wind Pressure Rain since
9am
mm
Weather Cloud Vis
km
Sea
Height
m
Swell
Dir  Spd
kts
Gust
kts
hPa Trend Height
m
Period
s
Dir
17/12:30pm 25.5 E 5 12 1012.0 - - - - - - - - -
17/12:00pm 25.3 ESE 4 14 1012.4 - - - - - - - - -
17/11:30am 25.0 E 3 9 1012.6 - - - - - - - - -
17/11:00am 24.2 SSE 5 14 1013.1 - - - - - - - - -
17/10:30am 23.3 SE 4 12 1013.5 - - - - - - - - -
17/10:00am 22.4 SE 4 13 1013.7 - - - - - - - - -
17/09:30am 21.8 E 5 14 1013.9 - - - - - - - - -
17/09:00am 21.1 ESE 4 10 1014.1 - - - - - - - - -
17/08:30am 20.6 E 4 10 1014.3 - - - - - - - - -
17/08:00am 19.5 ESE 3 9 1014.4 - - - - - - - - -
17/07:30am 18.8 ESE 4 10 1014.6 - - - - - - - - -
17/07:00am 18.3 SE 3 10 1014.6 - - - - - - - - -
17/06:30am 17.7 SE 4 8 1014.5 - - - - - - - - -
17/06:00am 17.3 SE 3 9 1014.4 - - - - - - - - -
17/05:30am 17.1 ESE 3 9 1014.0 - - - - - - - - -
17/05:00am 17.4 SE 4 12 1013.6 - - - - - - - - -
17/04:30am 17.7 SE 5 11 1013.0 - - - - - - - - -
17/04:00am 18.0 SE 4 16 1012.6 - - - - - - - - -
17/03:30am 18.4 SE 4 10 1012.3 - - - - - - - - -
17/03:00am 18.7 SE 4 11 1011.8 - - - - - - - - -
17/02:30am 19.1 SE 5 15 1011.6 - - - - - - - - -
17/02:00am 19.5 ESE 2 7 1011.2 - - - - - - - - -
17/01:30am 19.6 SSE 6 9 1010.9 - - - - - - - - -
17/01:00am 19.7 SSE 4 9 1010.7 - - - - - - - - -
17/12:30am 19.9 SSE 5 10 1010.5 - - - - - - - - -
17/12:00am 20.3 SSE 4 9 1010.4 - - - - - - - - -
 
Date/Time
WST
Temp
°C
Wind Pressure Rain since
9am
mm
Weather Cloud Vis
km
Sea
Height
m
Swell
Dir  Spd
kts
Gust
kts
hPa Trend Height
m
Period
s
Dir
16/11:30pm 20.8 S 4 11 1010.4 - - - - - - - - -
16/11:00pm 21.1 S 5 13 1010.2 - - - - - - - - -
16/10:30pm 21.5 S 5 11 1010.3 - - - - - - - - -
16/10:00pm 21.4 SSW 8 16 1010.4 - - - - - - - - -
16/09:30pm 21.2 SSW 10 21 1010.3 - - - - - - - - -
16/09:00pm 21.2 SSW 9 18 1010.0 - - - - - - - - -
16/08:30pm 21.3 SSW 9 19 1010.0 - - - - - - - - -
16/08:00pm 21.0 SSW 11 19 1009.7 - - - - - - - - -
16/07:30pm 20.9 SSW 9 19 1009.5 - - - - - - - - -
16/07:00pm 21.2 SSW 11 21 1009.4 - - - - - - - - -
16/06:30pm 21.4 SSW 13 23 1009.2 - - - - - - - - -
16/06:00pm 21.5 SSW 12 22 1009.0 - - - - - - - - -
16/05:30pm 21.7 SSW 9 20 1009.0 - - - - - - - - -
16/05:00pm 21.6 SSW 13 23 1008.9 - - - - - - - - -
16/04:30pm 21.3 SSW 13 21 1008.8 - - - - - - - - -
16/04:00pm 21.3 SSW 13 23 1008.8 - - - - - - - - -
16/03:30pm 21.0 SSW 13 24 1009.1 - - - - - - - - -
16/03:00pm 21.2 SSW 13 20 1009.2 - - - - - - - - -
16/02:30pm 21.0 SSW 12 21 1009.4 - - - - - - - - -
16/02:00pm 21.1 SSW 12 22 1009.4 - - - - - - - - -
16/01:30pm 21.2 SSW 12 20 1009.3 - - - - - - - - -
16/01:00pm 21.3 SSW 11 20 1009.5 - - - - - - - - -
16/12:30pm 21.4 SSW 11 22 1009.7 - - - - - - - - -
16/12:00pm 21.6 SSW 10 17 1009.7 - - - - - - - - -
16/11:30am 21.0 SSW 9 17 1009.8 - - - - - - - - -
16/11:00am 20.9 SSW 10 16 1010.0 - - - - - - - - -
16/10:30am 21.2 SSW 9 15 1010.2 - - - - - - - - -
16/10:00am 20.7 SSW 9 16 1010.0 - - - - - - - - -
16/09:30am 20.8 SSW 7 14 1009.9 - - - - - - - - -
16/09:00am 20.6 SSW 5 11 1010.0 - - - - - - - - -
16/08:30am 20.7 S 5 12 1010.2 - - - - - - - - -
16/08:00am 20.4 S 4 10 1010.0 - - - - - - - - -
16/07:30am 20.0 S 4 11 1009.8 - - - - - - - - -
16/07:00am 19.5 S 4 11 1009.7 - - - - - - - - -
16/06:30am 19.5 S 5 10 1009.3 - - - - - - - - -
16/06:00am 19.4 S 5 13 1009.0 - - - - - - - - -
16/05:30am 19.4 S 5 12 1008.7 - - - - - - - - -
16/05:00am 19.6 S 4 8 1008.3 - - - - - - - - -
16/04:30am 20.0 S 5 12 1008.0 - - - - - - - - -
16/04:00am 20.0 S 4 12 1007.8 - - - - - - - - -
16/03:30am 20.3 S 5 12 1007.5 - - - - - - - - -
16/03:00am 20.6 S 5 12 1007.2 - - - - - - - - -
16/02:30am 21.1 S 4 12 1007.2 - - - - - - - - -
16/02:00am 21.3 S 5 12 1007.2 - - - - - - - - -
16/01:30am 21.5 S 5 13 1007.1 - - - - - - - - -
16/01:00am 21.6 S 4 10 1007.1 - - - - - - - - -
16/12:30am 21.6 S 4 10 1007.1 - - - - - - - - -
16/12:00am 21.8 SSW 5 14 1007.0 - - - - - - - - -
 
Date/Time
WST
Temp
°C
Wind Pressure Rain since
9am
mm
Weather Cloud Vis
km
Sea
Height
m
Swell
Dir  Spd
kts
Gust
kts
hPa Trend Height
m
Period
s
Dir
15/11:30pm 21.9 S 5 12 1007.0 - - - - - - - - -
15/11:00pm 21.7 SSW 7 15 1007.0 - - - - - - - - -
15/10:30pm 21.9 SSW 8 17 1007.0 - - - - - - - - -
15/10:00pm 22.0 SSW 7 13 1007.1 - - - - - - - - -
15/09:30pm 21.6 SSW 8 17 1007.2 - - - - - - - - -
15/09:00pm 21.4 SSW 9 21 1007.1 - - - - - - - - -
15/08:30pm 21.4 SSW 11 21 1007.1 - - - - - - - - -
15/08:00pm 21.3 SSW 12 20 1007.1 - - - - - - - - -
15/07:30pm 21.3 SSW 12 19 1007.0 - - - - - - - - -
15/07:00pm 21.5 SSW 10 21 1006.8 - - - - - - - - -
15/06:30pm 21.5 SSW 10 18 1006.6 - - - - - - - - -
15/06:00pm 21.8 SSW 11 18 1006.3 - - - - - - - - -
15/05:30pm 22.3 SSW 9 16 1006.1 - - - - - - - - -
15/05:00pm 22.5 SSW 8 15 1005.9 - - - - - - - - -
15/04:30pm 22.3 SSW 9 15 1005.9 - - - - - - - - -
15/04:00pm 22.6 SSW 8 15 1006.1 - - - - - - - - -
15/03:30pm 23.1 SSW 7 15 1006.0 - - - - - - - - -
15/03:00pm 23.4 SSW 6 11 1006.2 - - - - - - - - -
15/02:30pm 22.6 SSW 7 13 1006.4 - - - - - - - - -
15/02:00pm 22.9 SSW 7 15 1006.6 - - - - - - - - -
15/01:30pm 22.8 SSW 6 12 1006.8 - - - - - - - - -
15/01:00pm 22.6 SSW 8 15 1006.9 - - - - - - - - -
15/12:30pm 22.6 SSW 8 13 1007.0 - - - - - - - - -
15/12:00pm 22.7 SSW 7 13 1007.3 - - - - - - - - -
15/11:30am 22.8 SSW 6 12 1007.5 - - - - - - - - -
15/11:00am 22.8 SSW 6 11 1007.8 - - - - - - - - -
15/10:30am 23.1 SSW 6 11 1007.9 - - - - - - - - -
15/10:00am 23.3 SSW 5 10 1007.9 - - - - - - - - -
15/09:30am 24.0 SSW 3 8 1007.9 - - - - - - - - -
15/09:00am 23.6 SSW 3 7 1008.0 - - - - - - - - -
15/08:30am 23.5 SSW 4 8 1008.2 - - - - - - - - -
15/08:00am 24.1 S 2 5 1008.3 - - - - - - - - -
15/07:30am 23.0 SSE 2 6 1008.2 - - - - - - - - -
15/07:00am 21.9 SSE 4 8 1008.4 - - - - - - - - -
15/06:30am 22.2 SSE 4 6 1008.5 - - - - - - - - -
15/06:00am 21.4 SSE 2 5 1008.4 - - - - - - - - -
15/05:30am 20.2 ESE 1 3 1008.1 - - - - - - - - -
15/05:00am 20.1 ESE 1 3 1007.9 - - - - - - - - -
15/04:30am 20.3 ESE 1 3 1007.9 - - - - - - - - -
15/04:00am 20.6 SE 1 2 1007.8 - - - - - - - - -
15/03:30am 20.8 E 1 2 1008.0 - - - - - - - - -
15/03:00am 20.4 CALM 0 1 1008.1 - - - - - - - - -
15/02:30am 20.5 CALM 0 1 1008.1 - - - - - - - - -
15/02:00am 21.3 CALM 0 1 1008.3 - - - - - - - - -
15/01:30am 21.8 E 1 2 1008.5 - - - - - - - - -
15/01:00am 22.6 SSE 2 5 1008.7 - - - - - - - - -
15/12:30am 22.4 SE 1 3 1009.1 - - - - - - - - -
15/12:00am 22.4 SSE 2 4 1009.4 - - - - - - - - -
 
Date/Time
WST
Temp
°C
Wind Pressure Rain since
9am
mm
Weather Cloud Vis
km
Sea
Height
m
Swell
Dir  Spd
kts
Gust
kts
hPa Trend Height
m
Period
s
Dir
14/11:30pm 22.6 S 1 5 1009.7 - - - - - - - - -
14/11:00pm 22.8 S 2 7 1009.7 - - - - - - - - -
14/10:30pm 22.9 SSW 3 6 1009.9 - - - - - - - - -
14/10:00pm 22.9 S 3 7 1009.9 - - - - - - - - -
14/09:30pm 23.2 SSW 3 8 1009.7 - - - - - - - - -
14/09:00pm 23.4 S 3 9 1009.7 - - - - - - - - -
14/08:30pm 23.7 SSW 3 9 1009.6 - - - - - - - - -
14/08:00pm 24.0 S 4 11 1009.4 - - - - - - - - -
14/07:30pm 24.2 SSW 4 11 1009.3 - - - - - - - - -
14/07:00pm 24.6 S 4 10 1008.9 - - - - - - - - -
14/06:30pm 24.9 S 4 10 1008.8 - - - - - - - - -
14/06:00pm 24.8 SSW 4 10 1008.6 - - - - - - - - -
14/05:30pm 25.1 S 4 9 1008.5 - - - - - - - - -
14/05:00pm 24.9 SSW 4 12 1008.6 - - - - - - - - -
14/04:30pm 24.7 SSW 4 9 1008.7 - - - - - - - - -
14/04:00pm 24.9 SSW 4 8 1009.1 - - - - - - - - -
14/03:30pm 24.7 SSW 5 11 1009.3 - - - - - - - - -
14/03:00pm 25.3 SSW 4 11 1009.7 - - - - - - - - -
14/02:30pm 25.5 SSW 3 8 1010.0 - - - - - - - - -
14/02:00pm 25.5 S 3 10 1010.3 - - - - - - - - -
14/01:30pm 25.3 S 3 9 1010.8 - - - - - - - - -
14/01:00pm 25.2 S 2 7 1011.3 - - - - - - - - -

Other Formats:

Comma delimited format used in spreadsheet applications
http://www.bom.gov.au/fwo/IDW60701/IDW60701.95605.axf

JavaScript Object Notation format (JSON) in row-major order
http://www.bom.gov.au/fwo/IDW60701/IDW60701.95605.json